Terminal Aerodrome Forecast
Issued by NWS Charleston, WV

Current Version | Previous Version | Graphics & Text | Print | Product List | Glossary On
Versions: 1 2 3 4 5 6 7 8 9 10 11 12 13 14 15 16 17 18 19 20 21 22
000
FTUS41 KRLX 231700
TAFEKN
TAF
KEKN 231729Z 2318/2418 19005KT P6SM BKN040
     FM232200 VRB03KT 4SM -RA BR OVC025
     FM240300 VRB03KT 2SM -RAPL BR SCT005 OVC010
     FM240500 VRB03KT 2SM -PL BR OVC003
     FM240900 03004KT 1SM -SN BR OVC003
     FM241400 29007KT 2SM -SN BR OVC010
     FM241600 29009KT 5SM -RASN BR BKN020=

USA.gov is the U.S. government's official web portal to all federal, state and local government web resources and services.